sensor_id;sensor_type;location;lat;lon;timestamp;P1;durP1;ratioP1;P2;durP2;ratioP2
7247;SDS011;3665;51.034;13.642;2023-09-19T00:14:51;1.90;;;1.27;;
7247;SDS011;3665;51.034;13.642;2023-09-19T00:20:11;2.13;;;1.40;;
7247;SDS011;3665;51.034;13.642;2023-09-19T00:25:13;1.30;;;1.10;;
7247;SDS011;3665;51.034;13.642;2023-09-19T00:50:59;1.60;;;1.40;;
7247;SDS011;3665;51.034;13.642;2023-09-19T00:55:48;2.47;;;1.30;;
7247;SDS011;3665;51.034;13.642;2023-09-19T01:05:38;2.47;;;1.27;;
7247;SDS011;3665;51.034;13.642;2023-09-19T01:10:27;1.13;;;1.00;;
7247;SDS011;3665;51.034;13.642;2023-09-19T01:20:31;2.47;;;1.30;;
7247;SDS011;3665;51.034;13.642;2023-09-19T01:36:07;1.20;;;1.10;;
7247;SDS011;3665;51.034;13.642;2023-09-19T01:57:38;1.63;;;1.07;;
7247;SDS011;3665;51.034;13.642;2023-09-19T02:02:46;2.23;;;0.90;;
7247;SDS011;3665;51.034;13.642;2023-09-19T02:13:22;3.07;;;1.20;;
7247;SDS011;3665;51.034;13.642;2023-09-19T02:18:09;3.07;;;1.00;;
7247;SDS011;3665;51.034;13.642;2023-09-19T02:23:01;2.57;;;1.13;;
7247;SDS011;3665;51.034;13.642;2023-09-19T02:27:47;2.07;;;1.00;;
7247;SDS011;3665;51.034;13.642;2023-09-19T02:32:50;1.27;;;0.83;;
7247;SDS011;3665;51.034;13.642;2023-09-19T02:37:37;3.17;;;1.20;;
7247;SDS011;3665;51.034;13.642;2023-09-19T02:42:25;1.23;;;0.90;;
7247;SDS011;3665;51.034;13.642;2023-09-19T02:47:15;1.70;;;1.10;;
7247;SDS011;3665;51.034;13.642;2023-09-19T02:52:07;1.90;;;1.10;;
7247;SDS011;3665;51.034;13.642;2023-09-19T02:56:52;3.83;;;1.40;;
7247;SDS011;3665;51.034;13.642;2023-09-19T03:01:46;2.10;;;1.10;;
7247;SDS011;3665;51.034;13.642;2023-09-19T03:06:42;2.20;;;1.10;;
7247;SDS011;3665;51.034;13.642;2023-09-19T03:11:31;2.73;;;0.90;;
7247;SDS011;3665;51.034;13.642;2023-09-19T03:16:17;2.37;;;1.30;;
7247;SDS011;3665;51.034;13.642;2023-09-19T03:21:07;2.57;;;1.10;;
7247;SDS011;3665;51.034;13.642;2023-09-19T03:25:55;1.67;;;0.90;;
7247;SDS011;3665;51.034;13.642;2023-09-19T03:30:44;1.00;;;0.90;;
7247;SDS011;3665;51.034;13.642;2023-09-19T03:35:30;1.60;;;0.83;;
7247;SDS011;3665;51.034;13.642;2023-09-19T03:40:18;1.50;;;1.40;;
7247;SDS011;3665;51.034;13.642;2023-09-19T03:45:06;1.47;;;0.90;;
7247;SDS011;3665;51.034;13.642;2023-09-19T03:50:02;1.63;;;1.20;;
7247;SDS011;3665;51.034;13.642;2023-09-19T03:54:57;1.00;;;0.90;;
7247;SDS011;3665;51.034;13.642;2023-09-19T03:59:46;1.63;;;1.00;;
7247;SDS011;3665;51.034;13.642;2023-09-19T04:04:33;2.13;;;1.03;;
7247;SDS011;3665;51.034;13.642;2023-09-19T04:09:21;2.97;;;1.17;;
7247;SDS011;3665;51.034;13.642;2023-09-19T04:14:10;1.67;;;1.07;;
7247;SDS011;3665;51.034;13.642;2023-09-19T04:18:57;5.07;;;1.70;;
7247;SDS011;3665;51.034;13.642;2023-09-19T04:23:47;2.03;;;1.10;;
7247;SDS011;3665;51.034;13.642;2023-09-19T04:33:38;1.23;;;0.90;;
7247;SDS011;3665;51.034;13.642;2023-09-19T04:38:27;2.10;;;1.23;;
7247;SDS011;3665;51.034;13.642;2023-09-19T04:43:13;1.97;;;1.00;;
7247;SDS011;3665;51.034;13.642;2023-09-19T04:48:01;1.57;;;1.30;;
7247;SDS011;3665;51.034;13.642;2023-09-19T04:52:50;1.27;;;1.10;;
7247;SDS011;3665;51.034;13.642;2023-09-19T04:57:37;2.50;;;1.13;;
7247;SDS011;3665;51.034;13.642;2023-09-19T05:02:21;1.73;;;1.47;;
7247;SDS011;3665;51.034;13.642;2023-09-19T05:07:23;1.90;;;1.33;;
7247;SDS011;3665;51.034;13.642;2023-09-19T05:12:11;2.80;;;1.20;;
7247;SDS011;3665;51.034;13.642;2023-09-19T05:17:07;1.60;;;1.40;;
7247;SDS011;3665;51.034;13.642;2023-09-19T05:21:53;1.43;;;1.10;;
7247;SDS011;3665;51.034;13.642;2023-09-19T05:26:49;1.93;;;1.20;;
7247;SDS011;3665;51.034;13.642;2023-09-19T05:31:40;2.27;;;1.30;;
7247;SDS011;3665;51.034;13.642;2023-09-19T05:36:35;1.47;;;1.20;;
7247;SDS011;3665;51.034;13.642;2023-09-19T05:41:22;1.77;;;1.30;;
7247;SDS011;3665;51.034;13.642;2023-09-19T05:46:09;2.03;;;1.20;;
7247;SDS011;3665;51.034;13.642;2023-09-19T05:50:59;3.43;;;1.33;;
7247;SDS011;3665;51.034;13.642;2023-09-19T05:55:46;2.03;;;1.40;;
7247;SDS011;3665;51.034;13.642;2023-09-19T06:00:35;2.23;;;1.43;;
7247;SDS011;3665;51.034;13.642;2023-09-19T06:05:38;2.83;;;1.43;;
7247;SDS011;3665;51.034;13.642;2023-09-19T06:10:23;1.20;;;1.10;;
7247;SDS011;3665;51.034;13.642;2023-09-19T06:15:14;1.00;;;1.00;;
7247;SDS011;3665;51.034;13.642;2023-09-19T06:20:01;3.40;;;1.43;;
7247;SDS011;3665;51.034;13.642;2023-09-19T06:24:49;2.43;;;1.80;;
7247;SDS011;3665;51.034;13.642;2023-09-19T06:29:35;2.10;;;1.30;;
7247;SDS011;3665;51.034;13.642;2023-09-19T06:34:27;2.13;;;1.27;;
7247;SDS011;3665;51.034;13.642;2023-09-19T06:39:12;2.80;;;1.30;;
7247;SDS011;3665;51.034;13.642;2023-09-19T06:49:06;2.20;;;1.37;;
7247;SDS011;3665;51.034;13.642;2023-09-19T06:53:54;1.60;;;1.50;;
7247;SDS011;3665;51.034;13.642;2023-09-19T06:58:54;1.40;;;1.30;;
7247;SDS011;3665;51.034;13.642;2023-09-19T07:08:46;2.27;;;1.30;;
7247;SDS011;3665;51.034;13.642;2023-09-19T07:13:38;1.43;;;0.90;;
7247;SDS011;3665;51.034;13.642;2023-09-19T07:18:24;1.63;;;0.90;;
7247;SDS011;3665;51.034;13.642;2023-09-19T07:23:09;1.00;;;0.90;;
7247;SDS011;3665;51.034;13.642;2023-09-19T07:27:55;2.03;;;1.03;;
7247;SDS011;3665;51.034;13.642;2023-09-19T07:32:51;1.80;;;0.90;;
7247;SDS011;3665;51.034;13.642;2023-09-19T07:37:38;1.70;;;1.17;;
7247;SDS011;3665;51.034;13.642;2023-09-19T07:47:29;2.60;;;1.20;;
7247;SDS011;3665;51.034;13.642;2023-09-19T07:52:33;1.10;;;1.00;;
7247;SDS011;3665;51.034;13.642;2023-09-19T07:57:22;2.87;;;1.03;;
7247;SDS011;3665;51.034;13.642;2023-09-19T08:02:11;2.37;;;1.00;;
7247;SDS011;3665;51.034;13.642;2023-09-19T08:06:58;1.00;;;0.90;;
7247;SDS011;3665;51.034;13.642;2023-09-19T08:11:47;2.80;;;1.00;;
7247;SDS011;3665;51.034;13.642;2023-09-19T08:16:33;1.23;;;1.00;;
7247;SDS011;3665;51.034;13.642;2023-09-19T08:21:25;1.70;;;0.90;;
7247;SDS011;3665;51.034;13.642;2023-09-19T08:26:18;1.80;;;0.73;;
7247;SDS011;3665;51.034;13.642;2023-09-19T08:31:14;1.30;;;1.00;;
7247;SDS011;3665;51.034;13.642;2023-09-19T08:36:21;2.47;;;0.90;;
7247;SDS011;3665;51.034;13.642;2023-09-19T08:41:06;1.60;;;0.97;;
7247;SDS011;3665;51.034;13.642;2023-09-19T08:45:56;0.97;;;0.93;;
7247;SDS011;3665;51.034;13.642;2023-09-19T08:51:00;1.27;;;0.80;;
7247;SDS011;3665;51.034;13.642;2023-09-19T08:56:03;1.70;;;0.87;;
7247;SDS011;3665;51.034;13.642;2023-09-19T09:01:05;1.70;;;0.80;;
7247;SDS011;3665;51.034;13.642;2023-09-19T09:05:53;1.33;;;0.83;;
7247;SDS011;3665;51.034;13.642;2023-09-19T09:10:43;1.47;;;0.90;;
7247;SDS011;3665;51.034;13.642;2023-09-19T09:15:29;0.97;;;0.77;;
7247;SDS011;3665;51.034;13.642;2023-09-19T09:20:20;2.03;;;1.23;;
7247;SDS011;3665;51.034;13.642;2023-09-19T09:25:21;2.20;;;1.20;;
7247;SDS011;3665;51.034;13.642;2023-09-19T09:30:09;1.40;;;0.90;;
7247;SDS011;3665;51.034;13.642;2023-09-19T09:35:14;3.75;;;1.25;;
7247;SDS011;3665;51.034;13.642;2023-09-19T09:40:02;1.60;;;1.00;;
7247;SDS011;3665;51.034;13.642;2023-09-19T09:50:27;2.30;;;1.20;;
7247;SDS011;3665;51.034;13.642;2023-09-19T09:55:31;1.33;;;1.10;;
7247;SDS011;3665;51.034;13.642;2023-09-19T10:00:56;3.00;;;1.10;;
7247;SDS011;3665;51.034;13.642;2023-09-19T10:05:57;0.97;;;0.87;;
7247;SDS011;3665;51.034;13.642;2023-09-19T10:10:51;1.50;;;1.00;;
7247;SDS011;3665;51.034;13.642;2023-09-19T10:15:47;2.23;;;1.00;;
7247;SDS011;3665;51.034;13.642;2023-09-19T10:20:51;1.70;;;0.90;;
7247;SDS011;3665;51.034;13.642;2023-09-19T10:25:37;1.17;;;0.93;;
7247;SDS011;3665;51.034;13.642;2023-09-19T10:30:25;1.00;;;0.90;;
7247;SDS011;3665;51.034;13.642;2023-09-19T10:35:14;2.87;;;1.03;;
7247;SDS011;3665;51.034;13.642;2023-09-19T10:40:05;2.27;;;0.90;;
7247;SDS011;3665;51.034;13.642;2023-09-19T10:45:10;1.15;;;0.90;;
7247;SDS011;3665;51.034;13.642;2023-09-19T10:50:09;1.20;;;0.98;;
7247;SDS011;3665;51.034;13.642;2023-09-19T10:55:29;0.73;;;0.73;;
7247;SDS011;3665;51.034;13.642;2023-09-19T11:00:19;2.25;;;1.10;;
7247;SDS011;3665;51.034;13.642;2023-09-19T11:05:30;2.25;;;1.08;;
7247;SDS011;3665;51.034;13.642;2023-09-19T11:21:47;2.25;;;1.27;;
7247;SDS011;3665;51.034;13.642;2023-09-19T11:26:51;1.30;;;1.20;;
7247;SDS011;3665;51.034;13.642;2023-09-19T11:32:03;2.72;;;1.33;;
7247;SDS011;3665;51.034;13.642;2023-09-19T11:36:50;2.25;;;1.17;;
7247;SDS011;3665;51.034;13.642;2023-09-19T11:41:38;1.90;;;1.00;;
7247;SDS011;3665;51.034;13.642;2023-09-19T11:46:27;1.73;;;1.23;;
7247;SDS011;3665;51.034;13.642;2023-09-19T11:51:39;1.80;;;1.30;;
7247;SDS011;3665;51.034;13.642;2023-09-19T11:56:42;1.40;;;1.08;;
7247;SDS011;3665;51.034;13.642;2023-09-19T12:01:50;1.60;;;1.33;;
7247;SDS011;3665;51.034;13.642;2023-09-19T12:06:45;2.10;;;1.00;;
7247;SDS011;3665;51.034;13.642;2023-09-19T12:12:03;1.48;;;1.08;;
7247;SDS011;3665;51.034;13.642;2023-09-19T12:21:54;1.13;;;0.90;;
7247;SDS011;3665;51.034;13.642;2023-09-19T12:26:45;1.02;;;0.82;;
7247;SDS011;3665;51.034;13.642;2023-09-19T12:31:51;2.05;;;1.23;;
7247;SDS011;3665;51.034;13.642;2023-09-19T12:37:01;1.75;;;0.90;;
7247;SDS011;3665;51.034;13.642;2023-09-19T12:41:53;1.67;;;1.05;;
7247;SDS011;3665;51.034;13.642;2023-09-19T12:47:00;1.40;;;0.90;;
7247;SDS011;3665;51.034;13.642;2023-09-19T12:52:03;2.20;;;1.02;;
7247;SDS011;3665;51.034;13.642;2023-09-19T12:56:53;2.33;;;1.10;;
7247;SDS011;3665;51.034;13.642;2023-09-19T13:01:47;1.10;;;0.88;;
7247;SDS011;3665;51.034;13.642;2023-09-19T13:18:15;1.63;;;1.27;;
7247;SDS011;3665;51.034;13.642;2023-09-19T13:23:27;2.63;;;1.23;;
7247;SDS011;3665;51.034;13.642;2023-09-19T13:28:11;1.67;;;1.10;;
7247;SDS011;3665;51.034;13.642;2023-09-19T13:44:41;1.85;;;1.10;;
7247;SDS011;3665;51.034;13.642;2023-09-19T13:49:38;3.28;;;1.35;;
7247;SDS011;3665;51.034;13.642;2023-09-19T13:59:42;1.75;;;1.15;;
7247;SDS011;3665;51.034;13.642;2023-09-19T14:04:57;1.83;;;1.30;;
7247;SDS011;3665;51.034;13.642;2023-09-19T14:09:53;1.50;;;1.17;;
7247;SDS011;3665;51.034;13.642;2023-09-19T14:19:45;1.50;;;1.40;;
7247;SDS011;3665;51.034;13.642;2023-09-19T14:24:30;3.17;;;2.00;;
7247;SDS011;3665;51.034;13.642;2023-09-19T14:29:23;2.53;;;1.60;;
7247;SDS011;3665;51.034;13.642;2023-09-19T14:34:09;1.40;;;1.23;;
7247;SDS011;3665;51.034;13.642;2023-09-19T14:38:53;1.20;;;1.10;;
7247;SDS011;3665;51.034;13.642;2023-09-19T14:43:45;1.77;;;1.30;;
7247;SDS011;3665;51.034;13.642;2023-09-19T14:48:28;2.97;;;1.50;;
7247;SDS011;3665;51.034;13.642;2023-09-19T14:53:15;2.53;;;1.60;;
7247;SDS011;3665;51.034;13.642;2023-09-19T14:58:05;1.70;;;1.60;;
7247;SDS011;3665;51.034;13.642;2023-09-19T15:02:54;1.83;;;1.60;;
7247;SDS011;3665;51.034;13.642;2023-09-19T15:07:46;2.65;;;1.80;;
7247;SDS011;3665;51.034;13.642;2023-09-19T15:17:44;2.10;;;1.57;;
7247;SDS011;3665;51.034;13.642;2023-09-19T15:22:42;2.10;;;1.47;;
7247;SDS011;3665;51.034;13.642;2023-09-19T15:27:27;2.83;;;1.90;;
7247;SDS011;3665;51.034;13.642;2023-09-19T15:32:18;2.50;;;1.80;;
7247;SDS011;3665;51.034;13.642;2023-09-19T15:37:08;2.00;;;1.70;;
7247;SDS011;3665;51.034;13.642;2023-09-19T15:41:54;3.43;;;1.50;;
7247;SDS011;3665;51.034;13.642;2023-09-19T15:46:44;2.83;;;1.60;;
7247;SDS011;3665;51.034;13.642;2023-09-19T15:51:30;4.30;;;1.70;;
7247;SDS011;3665;51.034;13.642;2023-09-19T15:56:20;3.67;;;1.80;;
7247;SDS011;3665;51.034;13.642;2023-09-19T16:01:06;2.10;;;1.70;;
7247;SDS011;3665;51.034;13.642;2023-09-19T16:05:54;2.27;;;1.80;;
7247;SDS011;3665;51.034;13.642;2023-09-19T16:10:42;2.50;;;1.77;;
7247;SDS011;3665;51.034;13.642;2023-09-19T16:15:29;2.33;;;1.80;;
7247;SDS011;3665;51.034;13.642;2023-09-19T16:20:21;3.10;;;1.80;;
7247;SDS011;3665;51.034;13.642;2023-09-19T16:25:06;2.40;;;1.67;;
7247;SDS011;3665;51.034;13.642;2023-09-19T16:29:54;3.20;;;2.10;;
7247;SDS011;3665;51.034;13.642;2023-09-19T16:34:41;2.77;;;1.70;;
7247;SDS011;3665;51.034;13.642;2023-09-19T16:39:30;2.57;;;1.83;;
7247;SDS011;3665;51.034;13.642;2023-09-19T16:44:17;2.13;;;1.90;;
7247;SDS011;3665;51.034;13.642;2023-09-19T16:49:07;3.17;;;1.90;;
7247;SDS011;3665;51.034;13.642;2023-09-19T16:53:54;3.00;;;1.90;;
7247;SDS011;3665;51.034;13.642;2023-09-19T16:58:44;3.67;;;2.20;;
7247;SDS011;3665;51.034;13.642;2023-09-19T17:03:29;3.40;;;2.33;;
7247;SDS011;3665;51.034;13.642;2023-09-19T17:08:18;3.63;;;2.00;;
7247;SDS011;3665;51.034;13.642;2023-09-19T17:13:02;2.00;;;1.80;;
7247;SDS011;3665;51.034;13.642;2023-09-19T17:17:50;4.43;;;2.10;;
7247;SDS011;3665;51.034;13.642;2023-09-19T17:22:36;3.30;;;2.03;;
7247;SDS011;3665;51.034;13.642;2023-09-19T17:32:48;3.07;;;2.23;;
7247;SDS011;3665;51.034;13.642;2023-09-19T17:37:38;4.33;;;2.23;;
7247;SDS011;3665;51.034;13.642;2023-09-19T17:42:25;3.30;;;1.97;;
7247;SDS011;3665;51.034;13.642;2023-09-19T17:47:10;4.17;;;2.10;;
7247;SDS011;3665;51.034;13.642;2023-09-19T17:52:01;2.57;;;2.03;;
7247;SDS011;3665;51.034;13.642;2023-09-19T17:56:49;5.63;;;2.50;;
7247;SDS011;3665;51.034;13.642;2023-09-19T18:01:35;3.00;;;2.57;;
7247;SDS011;3665;51.034;13.642;2023-09-19T18:06:30;2.60;;;2.03;;
7247;SDS011;3665;51.034;13.642;2023-09-19T18:11:16;3.93;;;2.60;;
7247;SDS011;3665;51.034;13.642;2023-09-19T18:16:11;3.70;;;2.17;;
7247;SDS011;3665;51.034;13.642;2023-09-19T18:21:00;3.30;;;2.20;;
7247;SDS011;3665;51.034;13.642;2023-09-19T18:25:47;3.07;;;2.00;;
7247;SDS011;3665;51.034;13.642;2023-09-19T18:30:41;2.77;;;2.03;;
7247;SDS011;3665;51.034;13.642;2023-09-19T18:35:31;2.50;;;1.87;;
7247;SDS011;3665;51.034;13.642;2023-09-19T18:40:18;2.93;;;2.07;;
7247;SDS011;3665;51.034;13.642;2023-09-19T18:45:08;3.73;;;2.13;;
7247;SDS011;3665;51.034;13.642;2023-09-19T18:49:57;2.17;;;1.70;;
7247;SDS011;3665;51.034;13.642;2023-09-19T18:54:42;4.83;;;2.70;;
7247;SDS011;3665;51.034;13.642;2023-09-19T18:59:28;3.27;;;1.60;;
7247;SDS011;3665;51.034;13.642;2023-09-19T19:04:12;4.20;;;2.23;;
7247;SDS011;3665;51.034;13.642;2023-09-19T19:09:03;2.23;;;1.87;;
7247;SDS011;3665;51.034;13.642;2023-09-19T19:13:53;3.87;;;1.90;;
7247;SDS011;3665;51.034;13.642;2023-09-19T19:18:39;3.87;;;2.10;;
7247;SDS011;3665;51.034;13.642;2023-09-19T19:23:28;4.13;;;2.50;;
7247;SDS011;3665;51.034;13.642;2023-09-19T19:28:16;2.30;;;1.83;;
7247;SDS011;3665;51.034;13.642;2023-09-19T19:33:06;2.63;;;1.83;;
7247;SDS011;3665;51.034;13.642;2023-09-19T19:37:53;2.20;;;1.93;;
7247;SDS011;3665;51.034;13.642;2023-09-19T19:42:37;6.70;;;1.93;;
7247;SDS011;3665;51.034;13.642;2023-09-19T19:47:29;4.30;;;1.70;;
7247;SDS011;3665;51.034;13.642;2023-09-19T19:52:19;3.07;;;2.00;;
7247;SDS011;3665;51.034;13.642;2023-09-19T19:57:04;3.20;;;2.07;;
7247;SDS011;3665;51.034;13.642;2023-09-19T20:01:54;2.83;;;1.60;;
7247;SDS011;3665;51.034;13.642;2023-09-19T20:06:42;4.80;;;1.80;;
7247;SDS011;3665;51.034;13.642;2023-09-19T20:11:29;2.00;;;1.50;;
7247;SDS011;3665;51.034;13.642;2023-09-19T20:16:18;3.43;;;1.60;;
7247;SDS011;3665;51.034;13.642;2023-09-19T20:21:05;3.57;;;1.90;;
7247;SDS011;3665;51.034;13.642;2023-09-19T20:25:53;1.60;;;1.50;;
7247;SDS011;3665;51.034;13.642;2023-09-19T20:30:43;3.23;;;1.53;;
7247;SDS011;3665;51.034;13.642;2023-09-19T20:35:29;2.87;;;1.63;;
7247;SDS011;3665;51.034;13.642;2023-09-19T20:40:22;2.40;;;1.60;;
7247;SDS011;3665;51.034;13.642;2023-09-19T20:45:08;1.97;;;1.60;;
7247;SDS011;3665;51.034;13.642;2023-09-19T20:49:54;3.17;;;1.53;;
7247;SDS011;3665;51.034;13.642;2023-09-19T20:54:38;2.70;;;1.70;;
7247;SDS011;3665;51.034;13.642;2023-09-19T20:59:30;2.47;;;1.83;;
7247;SDS011;3665;51.034;13.642;2023-09-19T21:04:16;2.33;;;1.60;;
7247;SDS011;3665;51.034;13.642;2023-09-19T21:09:06;4.17;;;1.87;;
7247;SDS011;3665;51.034;13.642;2023-09-19T21:13:55;3.00;;;1.73;;
7247;SDS011;3665;51.034;13.642;2023-09-19T21:18:42;2.73;;;1.53;;
7247;SDS011;3665;51.034;13.642;2023-09-19T21:23:29;2.00;;;1.40;;
7247;SDS011;3665;51.034;13.642;2023-09-19T21:28:17;5.77;;;1.70;;
7247;SDS011;3665;51.034;13.642;2023-09-19T21:33:07;3.30;;;1.90;;
7247;SDS011;3665;51.034;13.642;2023-09-19T21:37:51;2.30;;;1.53;;
7247;SDS011;3665;51.034;13.642;2023-09-19T21:42:43;4.07;;;1.53;;
7247;SDS011;3665;51.034;13.642;2023-09-19T21:47:31;3.83;;;1.40;;
7247;SDS011;3665;51.034;13.642;2023-09-19T21:52:15;3.83;;;1.70;;
7247;SDS011;3665;51.034;13.642;2023-09-19T21:57:01;2.33;;;1.37;;
7247;SDS011;3665;51.034;13.642;2023-09-19T22:01:48;2.17;;;1.50;;
7247;SDS011;3665;51.034;13.642;2023-09-19T22:06:32;1.93;;;1.40;;
7247;SDS011;3665;51.034;13.642;2023-09-19T22:11:17;2.97;;;1.37;;
7247;SDS011;3665;51.034;13.642;2023-09-19T22:16:02;2.00;;;1.50;;
7247;SDS011;3665;51.034;13.642;2023-09-19T22:20:57;2.60;;;1.60;;
7247;SDS011;3665;51.034;13.642;2023-09-19T22:25:55;1.90;;;1.50;;
7247;SDS011;3665;51.034;13.642;2023-09-19T22:30:47;3.70;;;1.90;;
7247;SDS011;3665;51.034;13.642;2023-09-19T22:35:32;3.13;;;1.50;;
7247;SDS011;3665;51.034;13.642;2023-09-19T22:40:21;4.53;;;1.70;;
7247;SDS011;3665;51.034;13.642;2023-09-19T22:45:12;2.57;;;1.77;;
7247;SDS011;3665;51.034;13.642;2023-09-19T22:49:56;2.10;;;1.40;;
7247;SDS011;3665;51.034;13.642;2023-09-19T22:54:47;1.83;;;1.50;;
7247;SDS011;3665;51.034;13.642;2023-09-19T22:59:40;2.03;;;1.50;;
7247;SDS011;3665;51.034;13.642;2023-09-19T23:04:24;2.93;;;1.20;;
7247;SDS011;3665;51.034;13.642;2023-09-19T23:09:09;1.30;;;1.10;;
7247;SDS011;3665;51.034;13.642;2023-09-19T23:13:58;3.87;;;1.20;;
7247;SDS011;3665;51.034;13.642;2023-09-19T23:24:04;2.67;;;1.30;;
7247;SDS011;3665;51.034;13.642;2023-09-19T23:28:57;1.63;;;1.17;;
7247;SDS011;3665;51.034;13.642;2023-09-19T23:33:42;2.20;;;1.20;;
7247;SDS011;3665;51.034;13.642;2023-09-19T23:38:29;1.43;;;1.13;;
7247;SDS011;3665;51.034;13.642;2023-09-19T23:43:20;2.97;;;1.13;;
7247;SDS011;3665;51.034;13.642;2023-09-19T23:48:06;1.87;;;1.10;;
7247;SDS011;3665;51.034;13.642;2023-09-19T23:52:51;2.07;;;1.60;;
7247;SDS011;3665;51.034;13.642;2023-09-19T23:57:38;1.10;;;1.00;;
